createdAt,value
2019-01-30T00:01:01.941Z,0.30
2019-01-30T00:03:31.222Z,0.30
2019-01-30T00:05:58.985Z,0.20
2019-01-30T00:08:26.654Z,0.20
2019-01-30T00:10:54.305Z,0.20
2019-01-30T00:13:22.185Z,0.10
2019-01-30T00:15:56.193Z,0.20
2019-01-30T00:18:19.608Z,0.20
2019-01-30T00:20:47.509Z,0.20
2019-01-30T00:23:15.362Z,0.20
2019-01-30T00:25:43.262Z,0.20
2019-01-30T00:28:11.102Z,0.20
2019-01-30T00:30:38.881Z,0.20
2019-01-30T00:33:06.725Z,0.20
2019-01-30T00:35:34.502Z,0.20
2019-01-30T00:38:02.279Z,0.20
2019-01-30T00:40:29.942Z,0.20
2019-01-30T00:42:57.817Z,0.20
2019-01-30T00:45:25.509Z,0.10
2019-01-30T00:47:53.282Z,0.20
2019-01-30T00:50:21.302Z,0.20
2019-01-30T00:52:50.062Z,0.20
2019-01-30T00:55:17.916Z,0.10
2019-01-30T00:57:45.793Z,0.20
2019-01-30T01:00:16.791Z,0.20
2019-01-30T01:02:46.261Z,0.10
2019-01-30T01:05:14.366Z,0.10
2019-01-30T01:07:42.098Z,0.10
2019-01-30T01:10:11.427Z,0.00
2019-01-30T01:12:40.719Z,0.00
2019-01-30T01:15:10.550Z,0.00
2019-01-30T01:17:40.131Z,0.00
2019-01-30T01:20:09.854Z,-0.10
2019-01-30T01:22:39.292Z,0.00
2019-01-30T01:25:11.148Z,0.00
2019-01-30T01:27:40.559Z,0.00
2019-01-30T01:30:12.114Z,0.10
2019-01-30T01:32:41.370Z,0.20
2019-01-30T01:35:09.232Z,0.20
2019-01-30T01:37:37.591Z,0.20
2019-01-30T01:40:06.838Z,0.10
2019-01-30T01:42:36.129Z,0.20
2019-01-30T01:45:05.142Z,0.20
2019-01-30T01:47:34.515Z,0.30
2019-01-30T01:50:02.437Z,0.30
2019-01-30T01:52:31.790Z,0.40
2019-01-30T01:54:59.489Z,0.40
2019-01-30T01:57:27.245Z,0.30
2019-01-30T01:59:54.910Z,0.30
2019-01-30T02:02:22.750Z,0.30
2019-01-30T02:04:50.437Z,0.30
2019-01-30T02:07:18.208Z,0.30
2019-01-30T02:09:45.991Z,0.20
2019-01-30T02:12:13.842Z,0.30
2019-01-30T02:14:41.728Z,0.20
2019-01-30T02:17:09.625Z,0.20
2019-01-30T02:19:37.283Z,0.20
2019-01-30T02:22:05.105Z,0.10
2019-01-30T02:24:32.870Z,0.10
2019-01-30T02:27:00.745Z,0.10
2019-01-30T02:29:28.422Z,0.10
2019-01-30T02:31:56.158Z,0.20
2019-01-30T02:34:24.008Z,0.20
2019-01-30T02:36:57.989Z,0.20
2019-01-30T02:39:25.984Z,0.30
2019-01-30T02:41:53.853Z,0.30
2019-01-30T02:44:22.644Z,0.20
2019-01-30T02:46:50.865Z,0.20
2019-01-30T02:49:18.595Z,0.30
2019-01-30T02:51:46.398Z,0.30
2019-01-30T02:54:14.317Z,0.40
2019-01-30T02:56:41.995Z,0.40
2019-01-30T02:59:09.812Z,0.60
2019-01-30T03:02:03.090Z,0.70
2019-01-30T03:04:32.550Z,0.70
2019-01-30T03:07:00.335Z,0.70
2019-01-30T03:09:28.180Z,0.60
2019-01-30T03:11:55.946Z,0.60
2019-01-30T03:14:23.815Z,0.60
2019-01-30T03:16:51.583Z,0.70
2019-01-30T03:19:19.456Z,0.60
2019-01-30T03:21:47.169Z,0.60
2019-01-30T03:24:15.009Z,0.50
2019-01-30T03:26:42.778Z,0.60
2019-01-30T03:29:10.531Z,0.60
2019-01-30T03:31:38.176Z,0.50
2019-01-30T03:34:05.829Z,0.50
2019-01-30T03:36:33.630Z,0.50
2019-01-30T03:39:01.407Z,0.50
2019-01-30T03:41:30.735Z,0.60
2019-01-30T03:43:58.578Z,0.50
2019-01-30T03:46:26.195Z,0.60
2019-01-30T03:48:53.892Z,0.60
2019-01-30T03:51:21.658Z,0.70
2019-01-30T03:53:49.317Z,0.70
2019-01-30T03:56:17.274Z,0.70
2019-01-30T03:58:44.958Z,0.80
2019-01-30T04:01:12.831Z,0.70
2019-01-30T04:03:40.604Z,0.70
2019-01-30T04:06:08.372Z,0.70
2019-01-30T04:08:36.030Z,0.60
2019-01-30T04:11:03.995Z,0.60
2019-01-30T04:13:31.981Z,0.50
2019-01-30T04:15:59.770Z,0.50
2019-01-30T04:18:27.501Z,0.40
2019-01-30T04:20:55.289Z,0.40
2019-01-30T04:23:23.132Z,0.50
2019-01-30T04:25:50.825Z,0.40
2019-01-30T04:28:18.581Z,0.40
2019-01-30T04:30:46.364Z,0.40
2019-01-30T04:33:14.215Z,0.40
2019-01-30T04:35:42.082Z,0.40
2019-01-30T04:38:10.054Z,0.40
2019-01-30T04:40:37.928Z,0.40
2019-01-30T04:43:05.922Z,0.40
2019-01-30T04:45:33.583Z,0.40
2019-01-30T04:48:01.345Z,0.40
2019-01-30T04:50:29.219Z,0.50
2019-01-30T04:52:56.975Z,0.40
2019-01-30T04:55:24.653Z,0.40
2019-01-30T04:57:52.403Z,0.30
2019-01-30T05:00:21.726Z,0.40
2019-01-30T05:02:50.894Z,0.40
2019-01-30T05:05:18.869Z,0.50
2019-01-30T05:07:47.233Z,0.60
2019-01-30T05:10:15.117Z,0.60
2019-01-30T05:12:42.948Z,0.70
2019-01-30T05:15:13.001Z,0.80
2019-01-30T05:17:42.274Z,0.90
2019-01-30T05:20:11.446Z,1.00
2019-01-30T05:22:40.793Z,1.10
2019-01-30T05:25:08.696Z,1.20
2019-01-30T05:27:36.882Z,1.30
2019-01-30T05:30:08.842Z,1.40
2019-01-30T05:32:38.099Z,1.30
2019-01-30T05:35:06.206Z,1.30
2019-01-30T05:37:34.264Z,1.30
2019-01-30T05:40:02.057Z,1.30
2019-01-30T05:42:31.404Z,1.20
2019-01-30T05:44:59.061Z,1.10
2019-01-30T05:47:26.824Z,1.10
2019-01-30T05:49:54.572Z,0.90
2019-01-30T05:52:22.322Z,0.90
2019-01-30T05:54:49.989Z,0.80
2019-01-30T05:57:18.013Z,0.70
2019-01-30T05:59:45.810Z,0.70
2019-01-30T06:02:15.804Z,0.70
2019-01-30T06:04:43.363Z,0.60
2019-01-30T06:07:11.186Z,0.60
2019-01-30T06:09:38.893Z,0.70
2019-01-30T06:12:06.642Z,0.80
2019-01-30T06:14:34.388Z,0.80
2019-01-30T06:17:02.235Z,0.90
2019-01-30T06:19:30.324Z,0.90
2019-01-30T06:21:58.132Z,1.00
2019-01-30T06:24:25.958Z,0.90
2019-01-30T06:26:53.649Z,1.00
2019-01-30T06:29:21.526Z,1.00
2019-01-30T06:31:49.349Z,1.00
2019-01-30T06:34:17.097Z,1.00
2019-01-30T06:36:44.752Z,1.10
2019-01-30T06:39:12.613Z,1.00
2019-01-30T06:41:41.766Z,1.10
2019-01-30T06:44:09.661Z,1.10
2019-01-30T06:46:37.353Z,1.20
2019-01-30T06:49:05.149Z,1.00
2019-01-30T06:51:32.883Z,1.10
2019-01-30T06:54:00.861Z,1.10
2019-01-30T06:56:28.667Z,1.00
2019-01-30T06:58:56.577Z,1.10
2019-01-30T07:01:24.346Z,1.10
2019-01-30T07:03:52.189Z,1.10
2019-01-30T07:06:19.911Z,1.10
2019-01-30T07:08:47.920Z,1.10
2019-01-30T07:11:15.901Z,1.10
2019-01-30T07:13:43.762Z,1.10
2019-01-30T07:16:11.530Z,1.00
2019-01-30T07:18:39.431Z,1.00
2019-01-30T07:21:07.255Z,1.10
2019-01-30T07:23:35.201Z,1.20
2019-01-30T07:26:03.385Z,1.30
2019-01-30T07:28:31.307Z,1.40
2019-01-30T07:30:59.182Z,1.40
2019-01-30T07:33:26.847Z,1.40
2019-01-30T07:35:54.583Z,1.40
2019-01-30T07:38:22.275Z,1.40
2019-01-30T07:40:50.033Z,1.30
2019-01-30T07:43:17.700Z,1.30
2019-01-30T07:45:45.497Z,1.30
2019-01-30T07:48:13.291Z,1.30
2019-01-30T07:50:41.337Z,1.40
2019-01-30T07:53:09.022Z,1.40
2019-01-30T07:55:37.029Z,1.50
2019-01-30T07:58:05.885Z,1.40
2019-01-30T08:00:33.998Z,1.50
2019-01-30T08:03:01.851Z,1.50
2019-01-30T08:05:29.809Z,1.60
2019-01-30T08:07:57.826Z,1.80
2019-01-30T08:10:25.781Z,1.90
2019-01-30T08:12:53.547Z,1.90
2019-01-30T08:15:21.742Z,1.90
2019-01-30T08:17:50.362Z,2.00
2019-01-30T08:20:19.654Z,2.00
2019-01-30T08:22:48.144Z,2.10
2019-01-30T08:25:18.083Z,2.20
2019-01-30T08:27:47.328Z,2.30
2019-01-30T08:30:26.100Z,2.20
2019-01-30T08:33:04.211Z,2.30
2019-01-30T08:35:26.824Z,2.20
2019-01-30T08:37:56.153Z,2.10
2019-01-30T08:40:23.985Z,2.20
2019-01-30T08:42:52.369Z,2.10
2019-01-30T08:45:22.892Z,2.10
2019-01-30T08:47:52.286Z,2.10
2019-01-30T08:50:20.220Z,2.10
2019-01-30T08:52:48.108Z,2.10
2019-01-30T08:55:15.912Z,2.20
2019-01-30T08:57:43.776Z,2.20
2019-01-30T09:00:14.512Z,2.30
2019-01-30T09:02:43.815Z,2.40
2019-01-30T09:05:12.303Z,2.50
2019-01-30T09:07:44.240Z,2.60
2019-01-30T09:10:13.110Z,2.70
2019-01-30T09:12:42.467Z,2.80
2019-01-30T09:15:11.823Z,2.90
2019-01-30T09:17:41.206Z,3.00
2019-01-30T09:20:12.133Z,3.00
2019-01-30T09:22:41.438Z,2.90
2019-01-30T09:25:11.065Z,2.90
2019-01-30T09:27:40.328Z,2.90
2019-01-30T09:30:12.137Z,3.00
2019-01-30T09:32:41.420Z,3.00
2019-01-30T09:35:09.562Z,3.00
2019-01-30T09:37:37.978Z,3.10
2019-01-30T09:40:06.472Z,3.20
2019-01-30T09:42:35.721Z,3.10
2019-01-30T09:45:04.987Z,3.10
2019-01-30T09:47:34.364Z,3.00
2019-01-30T09:50:02.385Z,3.10
2019-01-30T09:52:31.778Z,3.10
2019-01-30T09:54:59.686Z,3.20
2019-01-30T09:57:27.455Z,3.40
2019-01-30T09:59:55.213Z,3.50
2019-01-30T10:02:25.515Z,3.60
2019-01-30T10:04:53.491Z,3.70
2019-01-30T10:07:21.285Z,3.70
2019-01-30T10:09:49.094Z,3.80
2019-01-30T10:12:16.876Z,3.90
2019-01-30T10:14:44.577Z,4.00
2019-01-30T10:17:12.545Z,4.20
2019-01-30T10:19:43.140Z,4.40
2019-01-30T10:22:15.089Z,4.50
2019-01-30T10:24:43.917Z,4.60
2019-01-30T10:27:11.872Z,4.70
2019-01-30T10:29:39.646Z,4.70
2019-01-30T10:32:07.378Z,4.70
2019-01-30T10:34:35.134Z,4.70
2019-01-30T10:37:03.763Z,4.70
2019-01-30T10:39:31.723Z,4.60
2019-01-30T10:41:59.498Z,4.50
2019-01-30T10:44:27.294Z,4.60
2019-01-30T10:46:55.246Z,4.70
2019-01-30T10:49:22.938Z,4.70
2019-01-30T10:51:51.100Z,4.50
2019-01-30T10:54:19.043Z,4.50
2019-01-30T10:56:46.910Z,4.40
2019-01-30T10:59:16.901Z,4.50
2019-01-30T11:01:44.696Z,4.50
2019-01-30T11:04:12.493Z,4.60
2019-01-30T11:06:40.329Z,4.80
2019-01-30T11:09:09.647Z,4.90
2019-01-30T11:11:37.420Z,4.90
2019-01-30T11:14:05.677Z,4.90
2019-01-30T11:16:33.462Z,4.80
2019-01-30T11:19:01.421Z,4.80
2019-01-30T11:21:29.829Z,4.70
2019-01-30T11:23:57.820Z,4.60
2019-01-30T11:26:25.501Z,4.60
2019-01-30T11:28:53.445Z,4.50
2019-01-30T11:31:21.111Z,4.50
2019-01-30T11:33:48.785Z,4.50
2019-01-30T11:36:16.466Z,4.50
2019-01-30T11:38:44.218Z,4.50
2019-01-30T11:41:11.898Z,4.50
2019-01-30T11:43:39.653Z,4.50
2019-01-30T11:46:07.302Z,4.50
2019-01-30T11:48:35.144Z,4.40
2019-01-30T11:51:03.029Z,4.30
2019-01-30T11:53:30.821Z,4.20
2019-01-30T11:55:58.548Z,4.30
2019-01-30T11:58:26.430Z,4.20
2019-01-30T12:00:57.629Z,4.10
2019-01-30T12:03:25.934Z,4.10
2019-01-30T12:05:53.709Z,4.10
2019-01-30T12:08:21.464Z,4.10
2019-01-30T12:10:49.349Z,4.10
2019-01-30T12:13:17.238Z,4.00
2019-01-30T12:15:45.178Z,4.00
2019-01-30T12:18:12.837Z,4.10
2019-01-30T12:20:40.599Z,4.00
2019-01-30T12:23:08.325Z,4.00
2019-01-30T12:25:36.257Z,4.00
2019-01-30T12:28:04.367Z,4.10
2019-01-30T12:30:32.219Z,4.10
2019-01-30T12:33:00.013Z,4.10
2019-01-30T12:35:28.419Z,4.10
2019-01-30T12:37:56.088Z,4.20
2019-01-30T12:40:23.997Z,4.20
2019-01-30T12:42:52.531Z,4.30
2019-01-30T12:45:31.481Z,4.30
2019-01-30T12:48:00.869Z,4.40
2019-01-30T12:50:28.731Z,4.40
2019-01-30T12:52:56.638Z,4.40
2019-01-30T12:55:24.531Z,4.40
2019-01-30T12:57:53.809Z,4.20
2019-01-30T13:00:26.885Z,4.20
2019-01-30T13:02:56.226Z,4.00
2019-01-30T13:05:25.411Z,4.00
2019-01-30T13:07:53.377Z,4.00
2019-01-30T13:10:21.167Z,4.00
2019-01-30T13:12:49.274Z,4.20
2019-01-30T13:15:17.916Z,4.20
2019-01-30T13:17:47.390Z,4.10
2019-01-30T13:20:17.144Z,4.10
2019-01-30T13:22:46.706Z,4.00
2019-01-30T13:25:18.261Z,3.90
2019-01-30T13:27:47.630Z,3.90
2019-01-30T13:30:18.801Z,4.00
2019-01-30T13:32:48.197Z,3.90
2019-01-30T13:35:16.249Z,3.80
2019-01-30T13:37:44.124Z,3.80
2019-01-30T13:40:18.254Z,3.80
2019-01-30T13:42:47.617Z,3.80
2019-01-30T13:45:15.405Z,3.90
2019-01-30T13:47:43.306Z,3.80
2019-01-30T13:50:14.094Z,3.90
2019-01-30T13:52:43.390Z,4.00
2019-01-30T13:55:11.505Z,3.90
2019-01-30T13:57:39.522Z,3.90
2019-01-30T14:00:29.644Z,3.90
2019-01-30T14:02:59.000Z,3.90
2019-01-30T14:05:27.277Z,3.80
2019-01-30T14:07:55.582Z,3.90
2019-01-30T14:10:23.677Z,4.10
2019-01-30T14:12:51.801Z,4.10
2019-01-30T14:15:20.960Z,4.20
2019-01-30T14:17:50.277Z,4.20
2019-01-30T14:20:18.408Z,4.20
2019-01-30T14:22:46.355Z,4.10
2019-01-30T14:25:14.984Z,4.00
2019-01-30T14:27:43.224Z,3.80
2019-01-30T14:30:15.007Z,3.70
2019-01-30T14:32:44.328Z,3.60
2019-01-30T14:35:12.304Z,3.50
2019-01-30T14:37:40.343Z,3.50
2019-01-30T14:40:10.042Z,3.40
2019-01-30T14:42:39.590Z,3.40
2019-01-30T14:45:09.226Z,3.30
2019-01-30T14:47:38.590Z,3.40
2019-01-30T14:50:08.923Z,3.20
2019-01-30T14:52:38.450Z,3.20
2019-01-30T14:55:07.128Z,3.30
2019-01-30T14:57:36.527Z,3.30
2019-01-30T15:00:06.621Z,3.20
2019-01-30T15:02:36.015Z,3.20
2019-01-30T15:05:06.017Z,3.20
2019-01-30T15:07:35.442Z,3.10
2019-01-30T15:10:04.912Z,3.10
2019-01-30T15:12:34.346Z,3.10
2019-01-30T15:15:01.961Z,3.10
2019-01-30T15:17:31.483Z,3.00
2019-01-30T15:19:59.196Z,3.00
2019-01-30T15:22:27.144Z,2.90
2019-01-30T15:24:55.100Z,2.90
2019-01-30T15:27:22.854Z,2.90
2019-01-30T15:29:50.545Z,2.90
2019-01-30T15:32:18.514Z,2.80
2019-01-30T15:34:46.520Z,2.90
2019-01-30T15:37:14.289Z,2.90
2019-01-30T15:39:42.427Z,2.90
2019-01-30T15:42:10.332Z,2.90
2019-01-30T15:44:41.118Z,2.90
2019-01-30T15:47:08.907Z,2.90
2019-01-30T15:49:39.505Z,2.90
2019-01-30T15:52:07.469Z,2.90
2019-01-30T15:54:35.443Z,2.80
2019-01-30T15:57:03.355Z,2.80
2019-01-30T15:59:31.207Z,2.80
2019-01-30T16:01:59.026Z,2.80
2019-01-30T16:04:26.985Z,2.80
2019-01-30T16:06:54.678Z,2.80
2019-01-30T16:09:22.560Z,2.70
2019-01-30T16:11:50.625Z,2.70
2019-01-30T16:14:18.696Z,2.70
2019-01-30T16:16:46.390Z,2.70
2019-01-30T16:19:14.198Z,2.70
2019-01-30T16:21:41.970Z,2.70
2019-01-30T16:24:10.022Z,2.70
2019-01-30T16:26:37.787Z,2.70
2019-01-30T16:29:06.158Z,2.70
2019-01-30T16:31:33.960Z,2.70
2019-01-30T16:34:01.662Z,2.70
2019-01-30T16:36:29.625Z,2.70
2019-01-30T16:38:57.353Z,2.70
2019-01-30T16:41:25.274Z,2.70
2019-01-30T16:43:52.985Z,2.70
2019-01-30T16:46:20.841Z,2.70
2019-01-30T16:48:48.634Z,2.70
2019-01-30T16:51:16.439Z,2.80
2019-01-30T16:53:44.123Z,2.70
2019-01-30T16:56:11.980Z,2.70
2019-01-30T16:58:39.656Z,2.70
2019-01-30T17:01:07.545Z,2.70
2019-01-30T17:03:35.439Z,2.80
2019-01-30T17:06:07.495Z,2.90
2019-01-30T17:08:34.362Z,2.80
2019-01-30T17:11:02.090Z,2.70
2019-01-30T17:13:30.567Z,2.60
2019-01-30T17:15:58.467Z,2.60
2019-01-30T17:18:26.402Z,2.60
2019-01-30T17:20:54.223Z,2.50
2019-01-30T17:23:22.038Z,2.50
2019-01-30T17:25:49.955Z,2.50
2019-01-30T17:28:17.833Z,2.60
2019-01-30T17:30:54.995Z,2.60
2019-01-30T17:33:24.437Z,2.70
2019-01-30T17:35:52.139Z,2.70
2019-01-30T17:38:19.917Z,2.70
2019-01-30T17:40:47.844Z,2.70
2019-01-30T17:43:15.853Z,2.60
2019-01-30T17:45:43.556Z,2.50
2019-01-30T17:48:12.836Z,2.40
2019-01-30T17:50:41.150Z,2.30
2019-01-30T17:53:09.109Z,2.30
2019-01-30T17:55:36.941Z,2.30
2019-01-30T17:58:04.836Z,2.20
2019-01-30T18:00:40.526Z,2.20
2019-01-30T18:03:09.900Z,2.10
2019-01-30T18:05:37.746Z,2.20
2019-01-30T18:08:05.795Z,2.10
2019-01-30T18:10:33.679Z,2.00
2019-01-30T18:13:01.580Z,2.00
2019-01-30T18:15:29.823Z,2.00
2019-01-30T18:17:57.826Z,2.00
2019-01-30T18:20:25.919Z,2.00
2019-01-30T18:22:53.774Z,2.00
2019-01-30T18:25:21.802Z,1.90
2019-01-30T18:27:49.680Z,2.00
2019-01-30T18:30:17.663Z,2.00
2019-01-30T18:32:46.492Z,1.90
2019-01-30T18:35:14.599Z,1.90
2019-01-30T18:37:42.420Z,1.80
2019-01-30T18:40:13.345Z,1.90
2019-01-30T18:42:42.816Z,1.90
2019-01-30T18:45:14.003Z,1.90
2019-01-30T18:47:43.313Z,2.00
2019-01-30T18:50:14.262Z,2.00
2019-01-30T18:52:43.739Z,2.10
2019-01-30T18:55:11.951Z,2.10
2019-01-30T18:57:40.074Z,2.10
2019-01-30T19:00:12.775Z,2.10
2019-01-30T19:02:42.055Z,2.10
2019-01-30T19:05:10.259Z,2.10
2019-01-30T19:07:39.667Z,2.10
2019-01-30T19:10:09.979Z,2.20
2019-01-30T19:12:39.359Z,2.30
2019-01-30T19:15:10.959Z,2.30
2019-01-30T19:17:40.410Z,2.30
2019-01-30T19:20:11.389Z,2.30
2019-01-30T19:22:40.866Z,2.30
2019-01-30T19:25:09.005Z,2.20
2019-01-30T19:27:36.951Z,2.10
2019-01-30T19:30:08.490Z,2.10
2019-01-30T19:32:38.000Z,2.10
2019-01-30T19:35:07.054Z,2.00
2019-01-30T19:37:35.965Z,2.00
2019-01-30T19:40:05.892Z,1.90
2019-01-30T19:42:35.350Z,1.80
2019-01-30T19:45:04.403Z,1.80
2019-01-30T19:47:33.854Z,1.70
2019-01-30T19:50:01.563Z,1.70
2019-01-30T19:52:30.961Z,1.70
2019-01-30T19:54:58.890Z,1.80
2019-01-30T19:57:26.907Z,1.80
2019-01-30T19:59:54.655Z,1.80
2019-01-30T20:02:22.494Z,1.80
2019-01-30T20:04:50.465Z,1.70
2019-01-30T20:07:18.282Z,1.70
2019-01-30T20:09:46.219Z,1.70
2019-01-30T20:12:14.144Z,1.70
2019-01-30T20:14:42.094Z,1.70
2019-01-30T20:17:09.915Z,1.80
2019-01-30T20:19:37.738Z,1.80
2019-01-30T20:22:05.439Z,1.90
2019-01-30T20:24:33.444Z,1.90
2019-01-30T20:27:01.340Z,2.00
2019-01-30T20:29:29.481Z,2.00
2019-01-30T20:32:00.375Z,2.00
2019-01-30T20:34:28.422Z,2.10
2019-01-30T20:36:56.261Z,2.00
2019-01-30T20:39:24.204Z,1.90
2019-01-30T20:41:51.925Z,2.00
2019-01-30T20:44:19.733Z,1.90
2019-01-30T20:46:47.552Z,1.90
2019-01-30T20:49:15.347Z,1.90
2019-01-30T20:51:43.212Z,1.90
2019-01-30T20:54:11.092Z,1.90
2019-01-30T20:56:38.923Z,1.90
2019-01-30T20:59:06.713Z,1.80
2019-01-30T21:01:34.590Z,1.80
2019-01-30T21:04:02.435Z,1.80
2019-01-30T21:06:30.405Z,1.80
2019-01-30T21:08:58.104Z,1.80
2019-01-30T21:11:25.996Z,1.80
2019-01-30T21:13:53.739Z,1.80
2019-01-30T21:16:21.607Z,1.90
2019-01-30T21:18:49.449Z,1.90
2019-01-30T21:21:17.494Z,1.90
2019-01-30T21:23:45.227Z,1.90
2019-01-30T21:26:13.242Z,1.90
2019-01-30T21:28:41.142Z,2.00
2019-01-30T21:31:09.145Z,2.00
2019-01-30T21:33:37.038Z,1.90
2019-01-30T21:36:04.886Z,1.90
2019-01-30T21:38:32.831Z,1.90
2019-01-30T21:41:00.641Z,1.90
2019-01-30T21:43:28.513Z,1.80
2019-01-30T21:45:56.439Z,1.80
2019-01-30T21:48:24.366Z,1.70
2019-01-30T21:50:52.294Z,1.80
2019-01-30T21:53:20.182Z,1.70
2019-01-30T21:55:48.048Z,1.70
2019-01-30T21:58:16.490Z,1.70
2019-01-30T22:00:44.174Z,1.70
2019-01-30T22:03:12.149Z,1.70
2019-01-30T22:05:39.954Z,1.70
2019-01-30T22:08:07.957Z,1.70
2019-01-30T22:10:35.724Z,1.80
2019-01-30T22:13:04.222Z,1.80
2019-01-30T22:15:32.130Z,1.70
2019-01-30T22:18:00.082Z,1.70
2019-01-30T22:20:28.488Z,1.70
2019-01-30T22:22:56.410Z,1.70
2019-01-30T22:25:24.342Z,1.70
2019-01-30T22:27:52.361Z,1.70
2019-01-30T22:30:22.400Z,1.80
2019-01-30T22:32:51.808Z,1.70
2019-01-30T22:35:19.667Z,1.70
2019-01-30T22:37:47.425Z,1.60
2019-01-30T22:40:15.341Z,1.50
2019-01-30T22:42:43.139Z,1.50
2019-01-30T22:45:12.856Z,1.50
2019-01-30T22:47:42.132Z,1.40
2019-01-30T22:50:11.445Z,1.40
2019-01-30T22:52:40.758Z,1.50
2019-01-30T22:55:10.777Z,1.30
2019-01-30T22:57:40.060Z,1.40
2019-01-30T23:00:28.888Z,1.40
2019-01-30T23:02:58.261Z,1.30
2019-01-30T23:05:41.163Z,1.40
2019-01-30T23:08:25.324Z,1.40
2019-01-30T23:11:26.641Z,1.40
2019-01-30T23:13:58.622Z,1.40
2019-01-30T23:16:50.252Z,1.40
2019-01-30T23:19:34.108Z,1.30
2019-01-30T23:22:20.268Z,1.30
2019-01-30T23:25:24.880Z,1.30
2019-01-30T23:28:16.047Z,1.20
2019-01-30T23:31:22.489Z,1.20
2019-01-30T23:34:13.917Z,1.20
2019-01-30T23:37:09.503Z,1.10
2019-01-30T23:39:50.830Z,1.10
2019-01-30T23:42:44.782Z,1.00
2019-01-30T23:45:37.130Z,1.00
2019-01-30T23:48:46.574Z,0.90
2019-01-30T23:51:55.613Z,0.90
2019-01-30T23:55:02.396Z,0.80
2019-01-30T23:57:59.263Z,0.80
